AAL1120 KOKC-KABQ
Flight info
| Callsign | AAL1120 |
|---|---|
| Flight time | 1h 45m |
| Altitude | 34000 |
| Route | OLGUY3 YOUSE KIIDD COLTR4 |
| Aircraft | B738/M-SDE2E3FGHIRWXY/LB1 |
Departure
| Time | 2026-04-28 19:19 |
|---|---|
| Airport | OKC Will Rogers World Airport (KOKC) |
Arrival
| Time | 2026-04-28 21:04 |
|---|---|
| Airport | Albuquerque International Sunport (KABQ) |
| Time | Latitude | Longitude | Altitude | Speed | Heading |
|---|---|---|---|---|---|
| 2026-04-28 19:01 | 35.39518 | -97.59383 | 1294 ft | 0 kts | 270° |
| 2026-04-28 19:10 | 35.39519 | -97.59373 | 1294 ft | 1 kts | 244° |
| 2026-04-28 19:10 | 35.39526 | -97.59359 | 1294 ft | 1 kts | 254° |
| 2026-04-28 19:11 | 35.39527 | -97.59351 | 1294 ft | 0 kts | 276° |
| 2026-04-28 19:11 | 35.39525 | -97.59344 | 1294 ft | 0 kts | 305° |
| 2026-04-28 19:11 | 35.39521 | -97.59338 | 1294 ft | 0 kts | 334° |
| 2026-04-28 19:11 | 35.39515 | -97.59336 | 1294 ft | 1 kts | 358° |
| 2026-04-28 19:12 | 35.39513 | -97.59336 | 1294 ft | 0 kts | 359° |
| 2026-04-28 19:13 | 35.39516 | -97.59335 | 1294 ft | 4 kts | 8° |
| 2026-04-28 19:13 | 35.39526 | -97.59309 | 1294 ft | 5 kts | 107° |
| 2026-04-28 19:14 | 35.39489 | -97.59266 | 1294 ft | 9 kts | 143° |
| 2026-04-28 19:14 | 35.39420 | -97.59224 | 1294 ft | 12 kts | 172° |
| 2026-04-28 19:14 | 35.39328 | -97.59221 | 1294 ft | 14 kts | 179° |
| 2026-04-28 19:14 | 35.39208 | -97.59220 | 1291 ft | 19 kts | 180° |
| 2026-04-28 19:15 | 35.39070 | -97.59222 | 1290 ft | 18 kts | 180° |
| 2026-04-28 19:15 | 35.38982 | -97.59175 | 1290 ft | 14 kts | 110° |
| 2026-04-28 19:15 | 35.38949 | -97.59071 | 1291 ft | 13 kts | 153° |
| 2026-04-28 19:15 | 35.38888 | -97.59061 | 1290 ft | 14 kts | 179° |
| 2026-04-28 19:16 | 35.38728 | -97.59061 | 1290 ft | 20 kts | 180° |
| 2026-04-28 19:16 | 35.38570 | -97.59061 | 1290 ft | 23 kts | 180° |
| 2026-04-28 19:16 | 35.38399 | -97.59061 | 1288 ft | 25 kts | 179° |
| 2026-04-28 19:16 | 35.38217 | -97.59061 | 1284 ft | 26 kts | 180° |
| 2026-04-28 19:17 | 35.38051 | -97.59061 | 1282 ft | 22 kts | 179° |
| 2026-04-28 19:17 | 35.37913 | -97.59061 | 1280 ft | 15 kts | 180° |
| 2026-04-28 19:17 | 35.37871 | -97.59055 | 1280 ft | 0 kts | 159° |
| 2026-04-28 19:17 | 35.37871 | -97.59054 | 1280 ft | 0 kts | 159° |
| 2026-04-28 19:18 | 35.37860 | -97.59047 | 1280 ft | 7 kts | 147° |
| 2026-04-28 19:18 | 35.37835 | -97.58984 | 1281 ft | 10 kts | 94° |
| 2026-04-28 19:18 | 35.37890 | -97.58897 | 1282 ft | 14 kts | 9° |
| 2026-04-28 19:18 | 35.38081 | -97.58891 | 1285 ft | 59 kts | 359° |
| 2026-04-28 19:19 | 35.38772 | -97.58891 | 1293 ft | 137 kts | 359° |
| 2026-04-28 19:19 | 35.39890 | -97.58882 | 1609 ft | 175 kts | 0° |
| 2026-04-28 19:19 | 35.41101 | -97.58910 | 2622 ft | 174 kts | 354° |
| 2026-04-28 19:19 | 35.42281 | -97.59053 | 3441 ft | 177 kts | 352° |
| 2026-04-28 19:20 | 35.43544 | -97.59212 | 3985 ft | 192 kts | 352° |
| 2026-04-28 19:20 | 35.44899 | -97.59473 | 4509 ft | 205 kts | 335° |
| 2026-04-28 19:20 | 35.45972 | -97.60618 | 5023 ft | 213 kts | 294° |
| 2026-04-28 19:20 | 35.46133 | -97.62399 | 5625 ft | 218 kts | 254° |
| 2026-04-28 19:21 | 35.45402 | -97.64023 | 6302 ft | 226 kts | 237° |
| 2026-04-28 19:21 | 35.44841 | -97.65830 | 7048 ft | 237 kts | 262° |
| 2026-04-28 19:21 | 35.44830 | -97.67857 | 7928 ft | 243 kts | 266° |
| 2026-04-28 19:21 | 35.44722 | -97.69926 | 8689 ft | 251 kts | 259° |
| 2026-04-28 19:22 | 35.44427 | -97.72059 | 9588 ft | 254 kts | 256° |
| 2026-04-28 19:22 | 35.44182 | -97.73455 | 10219 ft | 255 kts | 254° |
| 2026-04-28 19:22 | 35.43651 | -97.76303 | 11097 ft | 270 kts | 254° |
| 2026-04-28 19:22 | 35.43227 | -97.78606 | 11683 ft | 283 kts | 255° |
| 2026-04-28 19:23 | 35.42793 | -97.81014 | 12223 ft | 297 kts | 255° |
| 2026-04-28 19:23 | 35.42347 | -97.83517 | 12798 ft | 309 kts | 255° |
| 2026-04-28 19:23 | 35.41891 | -97.86081 | 13542 ft | 314 kts | 255° |
| 2026-04-28 19:23 | 35.41427 | -97.88696 | 14357 ft | 317 kts | 255° |
| 2026-04-28 19:24 | 35.40962 | -97.91310 | 15180 ft | 319 kts | 256° |
| 2026-04-28 19:24 | 35.40485 | -97.93977 | 15976 ft | 322 kts | 256° |
| 2026-04-28 19:24 | 35.40006 | -97.96650 | 16778 ft | 324 kts | 257° |
| 2026-04-28 19:24 | 35.39523 | -97.99351 | 17558 ft | 326 kts | 257° |
| 2026-04-28 19:25 | 35.39035 | -98.02066 | 18324 ft | 328 kts | 257° |
| 2026-04-28 19:25 | 35.38547 | -98.04782 | 19111 ft | 329 kts | 257° |
| 2026-04-28 19:25 | 35.38060 | -98.07494 | 19791 ft | 332 kts | 258° |
| 2026-04-28 19:25 | 35.37564 | -98.10269 | 20530 ft | 333 kts | 258° |
| 2026-04-28 19:26 | 35.37166 | -98.13045 | 21191 ft | 335 kts | 262° |
| 2026-04-28 19:26 | 35.36993 | -98.15879 | 21920 ft | 336 kts | 268° |
| 2026-04-28 19:26 | 35.36985 | -98.18702 | 22577 ft | 337 kts | 269° |
| 2026-04-28 19:26 | 35.37045 | -98.21566 | 23158 ft | 340 kts | 270° |
| 2026-04-28 19:27 | 35.37127 | -98.24474 | 23770 ft | 342 kts | 270° |
| 2026-04-28 19:27 | 35.37207 | -98.27418 | 24351 ft | 345 kts | 270° |
| 2026-04-28 19:27 | 35.37277 | -98.30329 | 24858 ft | 349 kts | 270° |
| 2026-04-28 19:27 | 35.37342 | -98.33312 | 25432 ft | 351 kts | 270° |
| 2026-04-28 19:28 | 35.37403 | -98.36300 | 26040 ft | 352 kts | 270° |
| 2026-04-28 19:28 | 35.37461 | -98.39298 | 26518 ft | 355 kts | 270° |
| 2026-04-28 19:28 | 35.37516 | -98.42321 | 27040 ft | 358 kts | 270° |
| 2026-04-28 19:28 | 35.37567 | -98.45348 | 27501 ft | 361 kts | 270° |
| 2026-04-28 19:29 | 35.37618 | -98.48413 | 28045 ft | 362 kts | 270° |
| 2026-04-28 19:29 | 35.37651 | -98.50496 | 28388 ft | 363 kts | 270° |
| 2026-04-28 19:29 | 35.37716 | -98.54618 | 28932 ft | 368 kts | 270° |
| 2026-04-28 19:29 | 35.37764 | -98.57729 | 29381 ft | 370 kts | 270° |
| 2026-04-28 19:30 | 35.37812 | -98.60866 | 29912 ft | 370 kts | 270° |
| 2026-04-28 19:30 | 35.37858 | -98.63983 | 30485 ft | 368 kts | 270° |
| 2026-04-28 19:30 | 35.37904 | -98.67110 | 31207 ft | 363 kts | 269° |
| 2026-04-28 19:30 | 35.37949 | -98.70158 | 31866 ft | 359 kts | 270° |
| 2026-04-28 19:31 | 35.37993 | -98.73193 | 32480 ft | 356 kts | 270° |
| 2026-04-28 19:31 | 35.38037 | -98.76215 | 33134 ft | 351 kts | 270° |
| 2026-04-28 19:31 | 35.38079 | -98.79170 | 33717 ft | 347 kts | 270° |
| 2026-04-28 19:31 | 35.38119 | -98.82125 | 33990 ft | 349 kts | 270° |
| 2026-04-28 19:32 | 35.38197 | -98.88027 | 33995 ft | 342 kts | 270° |
| 2026-04-28 19:32 | 35.38272 | -98.93881 | 33995 ft | 346 kts | 270° |
| 2026-04-28 19:33 | 35.38345 | -98.99715 | 34000 ft | 343 kts | 270° |
| 2026-04-28 19:33 | 35.38412 | -99.05586 | 33999 ft | 346 kts | 270° |
| 2026-04-28 19:34 | 35.38477 | -99.11449 | 33995 ft | 346 kts | 270° |
| 2026-04-28 19:34 | 35.38541 | -99.17325 | 33996 ft | 343 kts | 270° |
| 2026-04-28 19:35 | 35.38477 | -99.23148 | 33995 ft | 346 kts | 268° |
| 2026-04-28 19:35 | 35.38311 | -99.29044 | 33991 ft | 344 kts | 268° |
| 2026-04-28 19:36 | 35.38152 | -99.34905 | 33990 ft | 343 kts | 268° |
| 2026-04-28 19:36 | 35.38005 | -99.40737 | 33985 ft | 346 kts | 268° |
| 2026-04-28 19:37 | 35.37885 | -99.45599 | 33985 ft | 342 kts | 269° |
| 2026-04-28 19:37 | 35.37713 | -99.52422 | 33987 ft | 343 kts | 268° |
| 2026-04-28 19:38 | 35.37563 | -99.58231 | 33983 ft | 344 kts | 269° |
| 2026-04-28 19:38 | 35.37413 | -99.64066 | 33992 ft | 344 kts | 268° |
| 2026-04-28 19:39 | 35.37257 | -99.69930 | 33989 ft | 344 kts | 268° |
| 2026-04-28 19:39 | 35.37100 | -99.75782 | 33984 ft | 344 kts | 268° |
| 2026-04-28 19:40 | 35.36943 | -99.81590 | 33988 ft | 342 kts | 268° |
| 2026-04-28 19:40 | 35.36778 | -99.87426 | 33990 ft | 343 kts | 268° |
| 2026-04-28 19:41 | 35.36611 | -99.93258 | 33988 ft | 344 kts | 268° |
| 2026-04-28 19:41 | 35.36442 | -99.99068 | 33991 ft | 342 kts | 268° |
| 2026-04-28 19:42 | 35.36270 | -100.04909 | 33992 ft | 343 kts | 268° |
| 2026-04-28 19:42 | 35.36126 | -100.09763 | 33997 ft | 343 kts | 268° |
| 2026-04-28 19:43 | 35.35922 | -100.16524 | 33997 ft | 341 kts | 268° |
| 2026-04-28 19:43 | 35.35745 | -100.22322 | 33999 ft | 342 kts | 268° |
| 2026-04-28 19:44 | 35.35561 | -100.28154 | 33999 ft | 343 kts | 268° |
| 2026-04-28 19:44 | 35.35375 | -100.33948 | 34007 ft | 343 kts | 268° |
| 2026-04-28 19:45 | 35.35188 | -100.39790 | 34004 ft | 342 kts | 268° |
| 2026-04-28 19:45 | 35.34999 | -100.45575 | 34007 ft | 341 kts | 268° |
| 2026-04-28 19:46 | 35.34803 | -100.51394 | 34007 ft | 343 kts | 268° |
| 2026-04-28 19:46 | 35.34609 | -100.57175 | 34002 ft | 340 kts | 268° |
| 2026-04-28 19:47 | 35.34413 | -100.62945 | 34012 ft | 343 kts | 268° |
| 2026-04-28 19:47 | 35.34213 | -100.68733 | 34008 ft | 340 kts | 267° |
| 2026-04-28 19:48 | 35.34008 | -100.74541 | 34010 ft | 342 kts | 268° |
| 2026-04-28 19:48 | 35.33800 | -100.80326 | 34016 ft | 341 kts | 267° |
| 2026-04-28 19:49 | 35.33589 | -100.86137 | 34013 ft | 340 kts | 268° |
| 2026-04-28 19:49 | 35.33380 | -100.91915 | 34026 ft | 342 kts | 268° |
| 2026-04-28 19:50 | 35.33058 | -101.00555 | 34031 ft | 340 kts | 268° |
| 2026-04-28 19:51 | 35.32843 | -101.06314 | 34041 ft | 340 kts | 267° |
| 2026-04-28 19:51 | 35.32620 | -101.12072 | 34042 ft | 340 kts | 267° |
| 2026-04-28 19:52 | 35.32394 | -101.17842 | 34043 ft | 340 kts | 267° |
| 2026-04-28 19:52 | 35.32169 | -101.23655 | 34042 ft | 340 kts | 268° |
| 2026-04-28 19:53 | 35.31939 | -101.29430 | 34040 ft | 340 kts | 267° |
| 2026-04-28 19:53 | 35.31706 | -101.35209 | 34041 ft | 340 kts | 267° |
| 2026-04-28 19:54 | 35.31472 | -101.40972 | 34046 ft | 339 kts | 267° |
| 2026-04-28 19:54 | 35.31235 | -101.46751 | 34049 ft | 340 kts | 267° |
| 2026-04-28 19:55 | 35.30997 | -101.52529 | 34051 ft | 340 kts | 268° |
| 2026-04-28 19:55 | 35.30755 | -101.58297 | 34050 ft | 340 kts | 267° |
| 2026-04-28 19:56 | 35.30506 | -101.64086 | 34052 ft | 341 kts | 268° |
| 2026-04-28 19:56 | 35.30257 | -101.69869 | 34047 ft | 341 kts | 266° |
| 2026-04-28 19:57 | 35.30008 | -101.75613 | 34051 ft | 339 kts | 266° |
| 2026-04-28 19:57 | 35.29754 | -101.81393 | 34050 ft | 342 kts | 266° |
| 2026-04-28 19:58 | 35.29497 | -101.87189 | 34044 ft | 341 kts | 266° |
| 2026-04-28 19:58 | 35.29235 | -101.92996 | 34044 ft | 342 kts | 266° |
| 2026-04-28 19:59 | 35.28971 | -101.98791 | 34051 ft | 342 kts | 267° |
| 2026-04-28 19:59 | 35.28707 | -102.04578 | 34053 ft | 341 kts | 266° |
| 2026-04-28 20:00 | 35.28436 | -102.10414 | 34059 ft | 343 kts | 267° |
| 2026-04-28 20:00 | 35.28165 | -102.16211 | 34063 ft | 342 kts | 267° |
| 2026-04-28 20:01 | 35.27891 | -102.21997 | 34063 ft | 342 kts | 266° |
| 2026-04-28 20:01 | 35.27609 | -102.27804 | 34067 ft | 344 kts | 266° |
| 2026-04-28 20:02 | 35.27328 | -102.33604 | 34068 ft | 343 kts | 266° |
| 2026-04-28 20:02 | 35.27047 | -102.39415 | 34071 ft | 343 kts | 266° |
| 2026-04-28 20:03 | 35.26762 | -102.45226 | 34070 ft | 342 kts | 267° |
| 2026-04-28 20:03 | 35.26474 | -102.51015 | 34074 ft | 343 kts | 266° |
| 2026-04-28 20:04 | 35.26179 | -102.56840 | 34076 ft | 344 kts | 266° |
| 2026-04-28 20:04 | 35.25885 | -102.62637 | 34083 ft | 341 kts | 267° |
| 2026-04-28 20:05 | 35.25587 | -102.68448 | 34092 ft | 342 kts | 266° |
| 2026-04-28 20:05 | 35.25291 | -102.74218 | 34090 ft | 342 kts | 266° |
| 2026-04-28 20:06 | 35.24990 | -102.79994 | 34094 ft | 340 kts | 267° |
| 2026-04-28 20:06 | 35.24688 | -102.85728 | 34093 ft | 339 kts | 266° |
| 2026-04-28 20:07 | 35.24383 | -102.91486 | 34089 ft | 340 kts | 267° |
| 2026-04-28 20:07 | 35.24075 | -102.97242 | 34078 ft | 340 kts | 266° |
| 2026-04-28 20:08 | 35.23764 | -103.02974 | 34073 ft | 340 kts | 266° |
| 2026-04-28 20:08 | 35.23450 | -103.08755 | 34070 ft | 340 kts | 266° |
| 2026-04-28 20:09 | 35.23135 | -103.14471 | 34077 ft | 340 kts | 266° |
| 2026-04-28 20:09 | 35.22815 | -103.20250 | 34081 ft | 340 kts | 266° |
| 2026-04-28 20:10 | 35.22493 | -103.26010 | 34082 ft | 341 kts | 266° |
| 2026-04-28 20:10 | 35.22166 | -103.31787 | 34087 ft | 341 kts | 266° |
| 2026-04-28 20:11 | 35.21835 | -103.37561 | 34088 ft | 340 kts | 266° |
| 2026-04-28 20:11 | 35.21505 | -103.43291 | 34080 ft | 340 kts | 266° |
| 2026-04-28 20:12 | 35.21171 | -103.49062 | 34077 ft | 342 kts | 266° |
| 2026-04-28 20:12 | 35.20833 | -103.54880 | 34072 ft | 341 kts | 266° |
| 2026-04-28 20:13 | 35.20495 | -103.60635 | 34067 ft | 343 kts | 265° |
| 2026-04-28 20:13 | 35.20146 | -103.66466 | 34064 ft | 343 kts | 265° |
| 2026-04-28 20:14 | 35.19802 | -103.72236 | 34063 ft | 342 kts | 266° |
| 2026-04-28 20:14 | 35.19455 | -103.78018 | 34065 ft | 341 kts | 266° |
| 2026-04-28 20:15 | 35.19101 | -103.83841 | 34080 ft | 342 kts | 265° |
| 2026-04-28 20:15 | 35.18749 | -103.89593 | 34098 ft | 341 kts | 265° |
| 2026-04-28 20:16 | 35.18394 | -103.95365 | 34102 ft | 341 kts | 265° |
| 2026-04-28 20:16 | 35.18033 | -104.01154 | 34110 ft | 344 kts | 265° |
| 2026-04-28 20:17 | 35.17667 | -104.06983 | 34113 ft | 342 kts | 265° |
| 2026-04-28 20:17 | 35.17302 | -104.12775 | 34118 ft | 344 kts | 265° |
| 2026-04-28 20:18 | 35.16937 | -104.18532 | 34120 ft | 343 kts | 266° |
| 2026-04-28 20:18 | 35.16565 | -104.24354 | 34125 ft | 343 kts | 266° |
| 2026-04-28 20:19 | 35.16186 | -104.30168 | 34122 ft | 343 kts | 265° |
| 2026-04-28 20:19 | 35.15807 | -104.35993 | 34141 ft | 343 kts | 265° |
| 2026-04-28 20:20 | 35.15428 | -104.41772 | 34149 ft | 343 kts | 265° |
| 2026-04-28 20:20 | 35.15044 | -104.47571 | 34141 ft | 344 kts | 265° |
| 2026-04-28 20:21 | 35.14655 | -104.53412 | 34141 ft | 346 kts | 265° |
| 2026-04-28 20:21 | 35.14265 | -104.59208 | 34137 ft | 344 kts | 265° |
| 2026-04-28 20:22 | 35.13872 | -104.65013 | 34144 ft | 345 kts | 265° |
| 2026-04-28 20:22 | 35.13481 | -104.70776 | 33723 ft | 337 kts | 265° |
| 2026-04-28 20:22 | 35.13287 | -104.73628 | 33276 ft | 333 kts | 265° |
| 2026-04-28 20:23 | 35.13097 | -104.76394 | 32809 ft | 329 kts | 264° |
| 2026-04-28 20:23 | 35.12908 | -104.79123 | 32501 ft | 322 kts | 265° |
| 2026-04-28 20:23 | 35.12720 | -104.81844 | 32150 ft | 325 kts | 265° |
| 2026-04-28 20:23 | 35.12525 | -104.84649 | 31774 ft | 343 kts | 265° |
| 2026-04-28 20:24 | 35.12321 | -104.87588 | 31360 ft | 343 kts | 264° |
| 2026-04-28 20:24 | 35.12123 | -104.90415 | 30975 ft | 337 kts | 265° |
| 2026-04-28 20:24 | 35.11927 | -104.93230 | 30598 ft | 330 kts | 265° |
| 2026-04-28 20:24 | 35.11732 | -104.96014 | 30214 ft | 324 kts | 264° |
| 2026-04-28 20:25 | 35.11541 | -104.98723 | 29832 ft | 319 kts | 264° |
| 2026-04-28 20:25 | 35.11352 | -105.01389 | 29453 ft | 313 kts | 264° |
| 2026-04-28 20:25 | 35.11176 | -105.04003 | 29090 ft | 311 kts | 264° |
| 2026-04-28 20:25 | 35.10887 | -105.06672 | 28713 ft | 329 kts | 261° |
| 2026-04-28 20:26 | 35.10458 | -105.09427 | 28314 ft | 331 kts | 259° |
| 2026-04-28 20:26 | 35.09988 | -105.12163 | 27920 ft | 325 kts | 259° |
| 2026-04-28 20:26 | 35.09530 | -105.14833 | 27533 ft | 318 kts | 259° |
| 2026-04-28 20:26 | 35.09099 | -105.17411 | 27170 ft | 311 kts | 259° |
| 2026-04-28 20:27 | 35.08682 | -105.19972 | 26804 ft | 304 kts | 259° |
| 2026-04-28 20:27 | 35.08277 | -105.22491 | 26431 ft | 298 kts | 260° |
| 2026-04-28 20:27 | 35.07892 | -105.24916 | 26075 ft | 292 kts | 259° |
| 2026-04-28 20:27 | 35.07501 | -105.27381 | 25723 ft | 303 kts | 260° |
| 2026-04-28 20:28 | 35.07098 | -105.29948 | 25330 ft | 314 kts | 260° |
| 2026-04-28 20:28 | 35.06683 | -105.32564 | 24941 ft | 309 kts | 259° |
| 2026-04-28 20:28 | 35.06284 | -105.35072 | 24566 ft | 302 kts | 260° |
| 2026-04-28 20:28 | 35.05888 | -105.37566 | 24186 ft | 295 kts | 260° |
| 2026-04-28 20:29 | 35.05501 | -105.40006 | 23814 ft | 289 kts | 260° |
| 2026-04-28 20:29 | 35.05127 | -105.42358 | 23460 ft | 283 kts | 260° |
| 2026-04-28 20:29 | 35.04758 | -105.44682 | 23113 ft | 279 kts | 260° |
| 2026-04-28 20:29 | 35.04381 | -105.47054 | 22770 ft | 296 kts | 260° |
| 2026-04-28 20:30 | 35.03983 | -105.49556 | 22386 ft | 301 kts | 260° |
| 2026-04-28 20:30 | 35.03586 | -105.52047 | 22004 ft | 296 kts | 259° |
| 2026-04-28 20:30 | 35.03199 | -105.54453 | 21631 ft | 290 kts | 259° |
| 2026-04-28 20:30 | 35.02819 | -105.56827 | 21273 ft | 284 kts | 259° |
| 2026-04-28 20:31 | 35.02443 | -105.59165 | 20914 ft | 278 kts | 259° |
| 2026-04-28 20:31 | 35.02237 | -105.60455 | 20719 ft | 275 kts | 259° |
| 2026-04-28 20:31 | 35.01943 | -105.62285 | 20434 ft | 274 kts | 259° |
| 2026-04-28 20:31 | 35.01561 | -105.64659 | 20065 ft | 293 kts | 260° |
| 2026-04-28 20:32 | 35.01168 | -105.67100 | 19676 ft | 294 kts | 259° |
| 2026-04-28 20:32 | 35.00778 | -105.69516 | 19288 ft | 289 kts | 259° |
| 2026-04-28 20:32 | 35.00394 | -105.71890 | 18913 ft | 284 kts | 259° |
| 2026-04-28 20:32 | 35.00017 | -105.74220 | 18545 ft | 279 kts | 259° |
| 2026-04-28 20:33 | 34.99645 | -105.76520 | 18182 ft | 274 kts | 259° |
| 2026-04-28 20:33 | 34.99275 | -105.78802 | 17709 ft | 274 kts | 259° |
| 2026-04-28 20:33 | 34.98911 | -105.81046 | 17314 ft | 271 kts | 259° |
| 2026-04-28 20:33 | 34.98549 | -105.83274 | 16955 ft | 267 kts | 259° |
| 2026-04-28 20:34 | 34.98187 | -105.85504 | 16610 ft | 277 kts | 259° |
| 2026-04-28 20:34 | 34.97800 | -105.87882 | 16212 ft | 289 kts | 259° |
| 2026-04-28 20:34 | 34.97409 | -105.90268 | 15815 ft | 286 kts | 259° |
| 2026-04-28 20:34 | 34.97026 | -105.92615 | 15452 ft | 284 kts | 259° |
| 2026-04-28 20:35 | 34.96634 | -105.95011 | 15059 ft | 289 kts | 259° |
| 2026-04-28 20:35 | 34.96246 | -105.97372 | 14666 ft | 287 kts | 259° |
| 2026-04-28 20:35 | 34.95863 | -105.99766 | 14282 ft | 282 kts | 261° |
| 2026-04-28 20:35 | 34.95628 | -106.02102 | 14032 ft | 277 kts | 266° |
| 2026-04-28 20:36 | 34.95582 | -106.04420 | 13625 ft | 276 kts | 270° |
| 2026-04-28 20:36 | 34.95628 | -106.06744 | 13248 ft | 274 kts | 271° |
| 2026-04-28 20:36 | 34.95685 | -106.09057 | 12879 ft | 271 kts | 271° |
| 2026-04-28 20:36 | 34.95729 | -106.11328 | 12517 ft | 269 kts | 270° |
| 2026-04-28 20:37 | 34.95759 | -106.13609 | 12157 ft | 266 kts | 270° |
| 2026-04-28 20:37 | 34.95782 | -106.15848 | 11810 ft | 269 kts | 270° |
| 2026-04-28 20:37 | 34.95804 | -106.18186 | 11432 ft | 284 kts | 270° |
| 2026-04-28 20:37 | 34.95826 | -106.20596 | 11116 ft | 280 kts | 270° |
| 2026-04-28 20:38 | 34.95763 | -106.22897 | 11076 ft | 269 kts | 266° |
| 2026-04-28 20:38 | 34.95581 | -106.25137 | 11060 ft | 262 kts | 263° |
| 2026-04-28 20:38 | 34.95356 | -106.27301 | 10859 ft | 254 kts | 263° |
| 2026-04-28 20:38 | 34.95134 | -106.29423 | 10574 ft | 250 kts | 264° |
| 2026-04-28 20:39 | 34.94929 | -106.31505 | 10406 ft | 241 kts | 264° |
| 2026-04-28 20:39 | 34.94744 | -106.33474 | 10348 ft | 226 kts | 264° |
| 2026-04-28 20:39 | 34.94575 | -106.35290 | 10283 ft | 209 kts | 264° |
| 2026-04-28 20:39 | 34.94421 | -106.36966 | 10213 ft | 190 kts | 264° |
| 2026-04-28 20:40 | 34.94279 | -106.38483 | 10156 ft | 169 kts | 263° |
| 2026-04-28 20:40 | 34.94049 | -106.39825 | 9984 ft | 155 kts | 253° |
| 2026-04-28 20:40 | 34.93659 | -106.41008 | 9725 ft | 148 kts | 250° |
| 2026-04-28 20:40 | 34.93290 | -106.42155 | 9458 ft | 142 kts | 252° |
| 2026-04-28 20:41 | 34.92976 | -106.43250 | 9179 ft | 138 kts | 253° |
| 2026-04-28 20:41 | 34.92635 | -106.44344 | 8804 ft | 139 kts | 250° |
| 2026-04-28 20:41 | 34.92446 | -106.45470 | 8415 ft | 136 kts | 271° |
| 2026-04-28 20:41 | 34.92767 | -106.46559 | 8037 ft | 140 kts | 298° |
| 2026-04-28 20:42 | 34.93420 | -106.47421 | 8024 ft | 144 kts | 312° |
| 2026-04-28 20:42 | 34.94238 | -106.48199 | 8072 ft | 151 kts | 312° |
| 2026-04-28 20:42 | 34.95015 | -106.49029 | 8025 ft | 145 kts | 310° |
| 2026-04-28 20:42 | 34.95776 | -106.49860 | 8039 ft | 150 kts | 313° |
| 2026-04-28 20:43 | 34.96593 | -106.50660 | 8040 ft | 149 kts | 313° |
| 2026-04-28 20:43 | 34.97371 | -106.51473 | 7743 ft | 146 kts | 311° |
| 2026-04-28 20:43 | 34.98181 | -106.52214 | 7281 ft | 154 kts | 324° |
| 2026-04-28 20:43 | 34.99262 | -106.52311 | 6974 ft | 167 kts | 19° |
| 2026-04-28 20:44 | 35.00267 | -106.51511 | 7071 ft | 179 kts | 32° |
| 2026-04-28 20:44 | 35.01285 | -106.50674 | 7089 ft | 173 kts | 20° |
| 2026-04-28 20:44 | 35.02477 | -106.50481 | 6718 ft | 167 kts | 335° |
| 2026-04-28 20:44 | 35.03397 | -106.51134 | 6494 ft | 150 kts | 311° |
| 2026-04-28 20:45 | 35.04031 | -106.52103 | 6333 ft | 147 kts | 292° |
| 2026-04-28 20:45 | 35.04381 | -106.53244 | 6129 ft | 138 kts | 276° |
| 2026-04-28 20:45 | 35.04437 | -106.54394 | 5904 ft | 137 kts | 265° |
| 2026-04-28 20:45 | 35.04418 | -106.55514 | 5730 ft | 138 kts | 265° |
| 2026-04-28 20:46 | 35.04413 | -106.56689 | 5557 ft | 133 kts | 268° |
| 2026-04-28 20:46 | 35.04411 | -106.57774 | 5372 ft | 124 kts | 267° |
| 2026-04-28 20:46 | 35.04420 | -106.58793 | 5354 ft | 120 kts | 268° |
| 2026-04-28 20:46 | 35.04436 | -106.59930 | 5718 ft | 138 kts | 268° |
| 2026-04-28 20:47 | 35.04459 | -106.61113 | 6276 ft | 151 kts | 267° |
| 2026-04-28 20:47 | 35.04478 | -106.62537 | 6684 ft | 179 kts | 269° |
| 2026-04-28 20:47 | 35.04489 | -106.63981 | 7517 ft | 172 kts | 268° |
| 2026-04-28 20:47 | 35.04465 | -106.65495 | 7946 ft | 183 kts | 267° |
| 2026-04-28 20:48 | 35.04455 | -106.67171 | 8015 ft | 214 kts | 268° |
| 2026-04-28 20:48 | 35.04465 | -106.69107 | 8012 ft | 237 kts | 269° |
| 2026-04-28 20:48 | 35.04471 | -106.71126 | 8005 ft | 241 kts | 266° |
| 2026-04-28 20:48 | 35.04014 | -106.73144 | 8004 ft | 261 kts | 238° |
| 2026-04-28 20:49 | 35.02662 | -106.74620 | 7981 ft | 269 kts | 207° |
| 2026-04-28 20:49 | 35.00790 | -106.74982 | 7998 ft | 283 kts | 178° |
| 2026-04-28 20:49 | 34.98929 | -106.74128 | 7995 ft | 293 kts | 147° |
| 2026-04-28 20:49 | 34.97589 | -106.72226 | 8003 ft | 304 kts | 118° |
| 2026-04-28 20:50 | 34.96962 | -106.69789 | 8003 ft | 297 kts | 103° |
| 2026-04-28 20:50 | 34.96807 | -106.67361 | 8018 ft | 281 kts | 88° |
| 2026-04-28 20:50 | 34.97023 | -106.65042 | 7789 ft | 271 kts | 81° |
| 2026-04-28 20:50 | 34.97341 | -106.62837 | 7631 ft | 255 kts | 81° |
| 2026-04-28 20:51 | 34.97615 | -106.60840 | 7603 ft | 220 kts | 82° |
| 2026-04-28 20:51 | 34.97819 | -106.59109 | 7521 ft | 192 kts | 84° |
| 2026-04-28 20:51 | 34.97978 | -106.57544 | 7460 ft | 181 kts | 85° |
| 2026-04-28 20:51 | 34.98129 | -106.56027 | 7443 ft | 177 kts | 85° |
| 2026-04-28 20:52 | 34.98268 | -106.54522 | 7381 ft | 180 kts | 85° |
| 2026-04-28 20:52 | 34.98537 | -106.53006 | 7329 ft | 183 kts | 64° |
| 2026-04-28 20:52 | 34.99395 | -106.51910 | 7226 ft | 180 kts | 22° |
| 2026-04-28 20:52 | 35.00523 | -106.51257 | 7104 ft | 174 kts | 18° |
| 2026-04-28 20:53 | 35.02788 | -106.50761 | 6553 ft | 158 kts | 325° |
| 2026-04-28 20:53 | 35.03638 | -106.51533 | 6405 ft | 153 kts | 306° |
| 2026-04-28 20:53 | 35.04270 | -106.52509 | 6258 ft | 143 kts | 288° |
| 2026-04-28 20:54 | 35.04419 | -106.53631 | 5995 ft | 134 kts | 267° |
| 2026-04-28 20:54 | 35.04410 | -106.54776 | 5746 ft | 130 kts | 265° |
| 2026-04-28 20:54 | 35.04393 | -106.55862 | 5624 ft | 133 kts | 266° |
| 2026-04-28 20:54 | 35.04405 | -106.57036 | 5507 ft | 143 kts | 266° |
| 2026-04-28 20:55 | 35.04415 | -106.58221 | 5375 ft | 141 kts | 268° |
| 2026-04-28 20:55 | 35.04413 | -106.59375 | 5348 ft | 134 kts | 266° |
| 2026-04-28 20:55 | 35.04418 | -106.60506 | 5341 ft | 135 kts | 275° |
| 2026-04-28 20:55 | 35.04422 | -106.61712 | 5337 ft | 161 kts | 270° |
| 2026-04-28 20:56 | 35.04490 | -106.63017 | 6135 ft | 150 kts | 267° |
| 2026-04-28 20:56 | 35.04481 | -106.64373 | 6600 ft | 168 kts | 264° |
| 2026-04-28 20:56 | 35.04455 | -106.65765 | 7265 ft | 171 kts | 267° |
| 2026-04-28 20:56 | 35.04460 | -106.67261 | 7763 ft | 184 kts | 268° |
| 2026-04-28 20:57 | 35.04473 | -106.68860 | 7974 ft | 194 kts | 269° |
| 2026-04-28 20:57 | 35.04480 | -106.70586 | 8010 ft | 211 kts | 268° |
| 2026-04-28 20:57 | 35.04187 | -106.72307 | 7993 ft | 207 kts | 243° |
| 2026-04-28 20:57 | 35.03153 | -106.73508 | 7999 ft | 211 kts | 211° |
| 2026-04-28 20:58 | 35.01683 | -106.73918 | 7996 ft | 221 kts | 187° |
| 2026-04-28 20:58 | 35.00140 | -106.73704 | 7993 ft | 229 kts | 169° |
| 2026-04-28 20:58 | 34.98714 | -106.72626 | 7982 ft | 265 kts | 135° |
| 2026-04-28 20:58 | 34.97865 | -106.70483 | 8001 ft | 300 kts | 105° |
| 2026-04-28 20:59 | 34.97576 | -106.67903 | 7982 ft | 311 kts | 94° |
| 2026-04-28 20:59 | 34.97616 | -106.65308 | 7744 ft | 310 kts | 87° |
| 2026-04-28 20:59 | 34.97803 | -106.62736 | 7622 ft | 291 kts | 85° |
| 2026-04-28 20:59 | 34.97997 | -106.60455 | 7560 ft | 256 kts | 86° |
| 2026-04-28 21:00 | 34.98153 | -106.58419 | 7485 ft | 225 kts | 86° |
| 2026-04-28 21:00 | 34.98266 | -106.56657 | 7423 ft | 195 kts | 88° |
| 2026-04-28 21:00 | 34.98354 | -106.55109 | 7295 ft | 173 kts | 89° |
| 2026-04-28 21:00 | 34.98424 | -106.53640 | 7269 ft | 179 kts | 87° |
| 2026-04-28 21:01 | 34.98863 | -106.52239 | 7185 ft | 179 kts | 43° |
| 2026-04-28 21:01 | 34.99879 | -106.51496 | 7148 ft | 172 kts | 14° |
| 2026-04-28 21:01 | 35.01015 | -106.50942 | 7041 ft | 177 kts | 15° |
| 2026-04-28 21:01 | 35.02187 | -106.50606 | 6700 ft | 171 kts | 349° |
| 2026-04-28 21:02 | 35.03230 | -106.51117 | 6470 ft | 153 kts | 311° |
| 2026-04-28 21:02 | 35.03912 | -106.52023 | 6282 ft | 140 kts | 292° |
| 2026-04-28 21:02 | 35.04297 | -106.53087 | 6030 ft | 136 kts | 278° |
| 2026-04-28 21:02 | 35.04419 | -106.54182 | 5849 ft | 126 kts | 266° |
| 2026-04-28 21:03 | 35.04409 | -106.55237 | 5688 ft | 126 kts | 265° |
| 2026-04-28 21:03 | 35.04399 | -106.56316 | 5563 ft | 128 kts | 265° |
| 2026-04-28 21:03 | 35.04413 | -106.57393 | 5418 ft | 125 kts | 265° |
| 2026-04-28 21:03 | 35.04410 | -106.58423 | 5360 ft | 121 kts | 270° |
| 2026-04-28 21:04 | 35.04417 | -106.59387 | 5347 ft | 93 kts | 270° |
| 2026-04-28 21:04 | 35.04421 | -106.59982 | 5342 ft | 65 kts | 270° |
| 2026-04-28 21:04 | 35.04424 | -106.60512 | 5340 ft | 61 kts | 270° |
| 2026-04-28 21:04 | 35.04428 | -106.60890 | 5338 ft | 26 kts | 272° |
| 2026-04-28 21:05 | 35.04474 | -106.61014 | 5338 ft | 17 kts | 320° |
| 2026-04-28 21:05 | 35.04559 | -106.61059 | 5338 ft | 10 kts | 322° |
| 2026-04-28 21:05 | 35.04579 | -106.61143 | 5338 ft | 13 kts | 271° |
| 2026-04-28 21:05 | 35.04581 | -106.61260 | 5337 ft | 10 kts | 276° |
| 2026-04-28 21:06 | 35.04608 | -106.61310 | 5337 ft | 2 kts | 346° |
| 2026-04-28 21:06 | 35.04619 | -106.61311 | 5337 ft | 2 kts | 352° |
| 2026-04-28 21:06 | 35.04640 | -106.61318 | 5338 ft | 3 kts | 333° |
| 2026-04-28 21:06 | 35.04662 | -106.61340 | 5338 ft | 4 kts | 312° |
| 2026-04-28 21:07 | 35.04682 | -106.61372 | 5337 ft | 5 kts | 308° |
| 2026-04-28 21:07 | 35.04697 | -106.61394 | 5337 ft | 1 kts | 306° |
| 2026-04-28 21:07 | 35.04702 | -106.61401 | 5336 ft | 0 kts | 306° |